createdAt,value
2022-08-03T00:01:51.267Z,99067.25
2022-08-03T00:04:17.820Z,99074.75
2022-08-03T00:06:44.669Z,99069.56
2022-08-03T00:09:11.534Z,99062.00
2022-08-03T00:11:38.417Z,99065.19
2022-08-03T00:14:05.624Z,99070.03
2022-08-03T00:16:32.337Z,99070.34
2022-08-03T00:18:58.895Z,99066.19
2022-08-03T00:21:28.842Z,99070.00
2022-08-03T00:23:55.314Z,99069.31
2022-08-03T00:26:22.049Z,99067.97
2022-08-03T00:28:49.093Z,99068.28
2022-08-03T00:31:15.699Z,99071.31
2022-08-03T00:33:59.673Z,99070.97
2022-08-03T00:36:28.923Z,99069.59
2022-08-03T00:38:56.340Z,99067.56
2022-08-03T00:41:22.964Z,99062.38
2022-08-03T00:43:49.467Z,99063.53
2022-08-03T00:46:21.016Z,99063.84
2022-08-03T00:48:49.087Z,99066.16
2022-08-03T00:51:15.597Z,99069.84
2022-08-03T00:53:42.068Z,99068.47
2022-08-03T00:56:08.680Z,99063.47
2022-08-03T00:58:35.169Z,99068.13
2022-08-03T01:01:01.703Z,99065.06
2022-08-03T01:03:28.309Z,99068.88
2022-08-03T01:05:57.800Z,99066.38
2022-08-03T01:08:59.859Z,99059.38
2022-08-03T01:11:36.418Z,99077.69
2022-08-03T01:14:31.113Z,99071.97
2022-08-03T01:16:59.468Z,99080.00
2022-08-03T01:19:32.631Z,99071.28
2022-08-03T01:22:25.491Z,99075.00
2022-08-03T01:24:58.157Z,99069.94
2022-08-03T01:27:37.399Z,99061.56
2022-08-03T01:30:06.712Z,99074.25
2022-08-03T01:33:01.027Z,99072.72
2022-08-03T01:35:32.366Z,99067.84
2022-08-03T01:38:04.943Z,99066.34
2022-08-03T01:40:34.360Z,99069.16
2022-08-03T01:43:02.232Z,99062.13
2022-08-03T01:45:34.269Z,99072.16
2022-08-03T01:48:01.748Z,99068.78
2022-08-03T01:50:29.423Z,99071.09
2022-08-03T01:52:57.069Z,99071.41
2022-08-03T01:55:24.961Z,99071.72
2022-08-03T01:58:05.268Z,99067.53
2022-08-03T02:00:33.367Z,99068.50
2022-08-03T02:03:00.696Z,99059.00
2022-08-03T02:05:28.598Z,99067.28
2022-08-03T02:07:56.170Z,99066.59
2022-08-03T02:10:35.529Z,99071.28
2022-08-03T02:13:03.098Z,99075.22
2022-08-03T02:15:30.538Z,99068.53
2022-08-03T02:17:57.472Z,99078.69
2022-08-03T02:20:24.332Z,99068.16
2022-08-03T02:22:50.851Z,99070.84
2022-08-03T02:25:17.367Z,99060.44
2022-08-03T02:27:49.035Z,99062.28
2022-08-03T02:30:15.724Z,99071.44
2022-08-03T02:32:44.223Z,99067.25
2022-08-03T02:35:12.668Z,99070.91
2022-08-03T02:37:45.032Z,99065.03
2022-08-03T02:40:17.970Z,99067.00
2022-08-03T02:42:46.764Z,99057.63
2022-08-03T02:45:15.721Z,99069.31
2022-08-03T02:47:53.787Z,99070.28
2022-08-03T02:50:22.035Z,99066.94
2022-08-03T02:52:49.889Z,99055.59
2022-08-03T02:55:19.781Z,99053.34
2022-08-03T02:57:46.570Z,99056.16
2022-08-03T03:00:13.811Z,99055.59
2022-08-03T03:02:54.708Z,99051.44
2022-08-03T03:05:54.490Z,99052.56
2022-08-03T03:08:17.934Z,99045.72
2022-08-03T03:10:47.751Z,99048.66
2022-08-03T03:13:15.249Z,99047.31
2022-08-03T03:15:43.502Z,99055.31
2022-08-03T03:18:10.719Z,99060.09
2022-08-03T03:20:39.133Z,99047.91
2022-08-03T03:23:05.935Z,99054.38
2022-08-03T03:25:33.181Z,99055.53
2022-08-03T03:28:00.415Z,99053.16
2022-08-03T03:30:28.084Z,99054.44
2022-08-03T03:32:54.919Z,99046.59
2022-08-03T03:35:21.588Z,99058.38
2022-08-03T03:37:48.150Z,99062.06
2022-08-03T03:40:14.676Z,99058.69
2022-08-03T03:42:41.376Z,99057.00
2022-08-03T03:45:08.336Z,99053.81
2022-08-03T03:47:35.640Z,99052.97
2022-08-03T03:50:02.830Z,99061.13
2022-08-03T03:52:29.393Z,99057.59
2022-08-03T03:55:00.657Z,99056.91
2022-08-03T03:57:27.877Z,99057.88
2022-08-03T03:59:54.390Z,99060.56
2022-08-03T04:02:20.961Z,99058.91
2022-08-03T04:05:06.093Z,99054.41
2022-08-03T04:07:56.650Z,99057.09
2022-08-03T04:10:42.317Z,99059.88
2022-08-03T04:13:10.167Z,99068.56
2022-08-03T04:15:38.158Z,99068.56
2022-08-03T04:18:06.186Z,99070.25
2022-08-03T04:20:34.770Z,99064.91
2022-08-03T04:23:01.877Z,99064.25
2022-08-03T04:25:30.363Z,99070.25
2022-08-03T04:28:07.785Z,99069.41
2022-08-03T04:30:48.318Z,99069.72
2022-08-03T04:33:16.428Z,99075.03
2022-08-03T04:36:00.908Z,99075.88
2022-08-03T04:38:30.348Z,99077.84
2022-08-03T04:40:56.939Z,99087.53
2022-08-03T04:43:24.644Z,99089.06
2022-08-03T04:45:51.485Z,99086.09
2022-08-03T04:48:20.088Z,99083.16
2022-08-03T04:50:47.831Z,99083.69
2022-08-03T04:53:14.388Z,99088.72
2022-08-03T04:55:40.890Z,99091.72
2022-08-03T04:58:07.479Z,99092.59
2022-08-03T05:00:33.946Z,99100.25
2022-08-03T05:03:00.417Z,99090.41
2022-08-03T05:05:26.882Z,99091.34
2022-08-03T05:08:13.411Z,99093.63
2022-08-03T05:10:40.515Z,99102.72
2022-08-03T05:13:12.018Z,99091.09
2022-08-03T05:15:43.165Z,99083.84
2022-08-03T05:18:13.846Z,99084.19
2022-08-03T05:20:40.753Z,99086.09
2022-08-03T05:23:07.266Z,99086.13
2022-08-03T05:25:33.733Z,99083.66
2022-08-03T05:28:00.297Z,99077.88
2022-08-03T05:30:33.516Z,99075.00
2022-08-03T05:33:01.851Z,99080.06
2022-08-03T05:35:57.604Z,99082.09
2022-08-03T05:38:23.844Z,99077.00
2022-08-03T05:40:57.297Z,99072.34
2022-08-03T05:43:42.430Z,99073.72
2022-08-03T05:46:12.038Z,99071.06
2022-08-03T05:48:39.738Z,99074.94
2022-08-03T05:51:07.799Z,99075.97
2022-08-03T05:53:34.706Z,99076.31
2022-08-03T05:56:03.395Z,99072.69
2022-08-03T05:58:41.790Z,99077.38
2022-08-03T06:01:08.443Z,99073.06
2022-08-03T06:03:35.083Z,99078.59
2022-08-03T06:06:01.622Z,99070.91
2022-08-03T06:08:28.202Z,99066.59
2022-08-03T06:10:54.937Z,99072.97
2022-08-03T06:13:22.135Z,99076.16
2022-08-03T06:15:48.645Z,99076.38
2022-08-03T06:18:15.198Z,99075.03
2022-08-03T06:20:41.739Z,99077.34
2022-08-03T06:23:08.325Z,99074.78
2022-08-03T06:25:43.183Z,99080.72
2022-08-03T06:28:15.077Z,99081.09
2022-08-03T06:30:50.872Z,99075.16
2022-08-03T06:33:17.711Z,99069.56
2022-08-03T06:35:44.709Z,99072.28
2022-08-03T06:38:13.022Z,99058.88
2022-08-03T06:40:42.421Z,99061.06
2022-08-03T06:43:12.455Z,99065.56
2022-08-03T06:45:39.588Z,99065.69
2022-08-03T06:48:07.660Z,99057.38
2022-08-03T06:50:34.945Z,99050.78
2022-08-03T06:53:02.280Z,99058.47
2022-08-03T06:55:28.820Z,99062.38
2022-08-03T06:57:55.656Z,99064.94
2022-08-03T07:00:26.594Z,99061.19
2022-08-03T07:02:57.923Z,99047.59
2022-08-03T07:05:24.913Z,99056.50
2022-08-03T07:07:51.475Z,99051.84
2022-08-03T07:10:18.136Z,99052.47
2022-08-03T07:12:52.656Z,99060.69
2022-08-03T07:15:53.907Z,99054.38
2022-08-03T07:18:10.117Z,99051.81
2022-08-03T07:20:36.801Z,99046.34
2022-08-03T07:23:03.763Z,99048.34
2022-08-03T07:25:30.257Z,99045.56
2022-08-03T07:27:56.756Z,99039.94
2022-08-03T07:30:24.803Z,99040.72
2022-08-03T07:32:51.331Z,99043.31
2022-08-03T07:35:25.024Z,99030.97
2022-08-03T07:37:54.533Z,99039.94
2022-08-03T07:40:22.205Z,99038.44
2022-08-03T07:42:48.814Z,99035.78
2022-08-03T07:45:21.496Z,99032.13
2022-08-03T07:47:53.198Z,99023.25
2022-08-03T07:50:23.662Z,99018.75
2022-08-03T07:52:52.904Z,99019.84
2022-08-03T07:55:21.279Z,99014.00
2022-08-03T07:57:48.112Z,99017.53
2022-08-03T08:00:16.725Z,99013.09
2022-08-03T08:02:43.679Z,99013.94
2022-08-03T08:05:11.067Z,99006.94
2022-08-03T08:07:38.675Z,99018.41
2022-08-03T08:10:10.180Z,99009.69
2022-08-03T08:12:37.853Z,99000.00
2022-08-03T08:15:05.112Z,99003.25
2022-08-03T08:17:31.581Z,98992.50
2022-08-03T08:19:58.216Z,98988.56
2022-08-03T08:22:30.583Z,98990.44
2022-08-03T08:24:59.123Z,98996.47
2022-08-03T08:27:25.794Z,98994.50
2022-08-03T08:29:54.244Z,98997.28
2022-08-03T08:32:21.926Z,98982.19
2022-08-03T08:34:48.419Z,98990.81
2022-08-03T08:37:15.129Z,98995.34
2022-08-03T08:39:41.654Z,98995.13
2022-08-03T08:42:08.187Z,98989.94
2022-08-03T08:44:34.787Z,98993.09
2022-08-03T08:47:03.764Z,98987.50
2022-08-03T08:49:32.007Z,98985.78
2022-08-03T08:52:01.007Z,98978.72
2022-08-03T08:54:29.294Z,98987.63
2022-08-03T08:56:57.235Z,98984.44
2022-08-03T08:59:24.278Z,98985.06
2022-08-03T09:01:50.815Z,98985.41
2022-08-03T09:04:17.723Z,98982.69
2022-08-03T09:06:58.663Z,98979.22
2022-08-03T09:10:05.940Z,98979.38
2022-08-03T09:12:39.126Z,98976.91
2022-08-03T09:15:24.497Z,98973.28
2022-08-03T09:17:52.156Z,98971.91
2022-08-03T09:20:19.226Z,98977.91
2022-08-03T09:23:18.043Z,98972.69
2022-08-03T09:25:57.690Z,98968.44
2022-08-03T09:28:57.962Z,98970.84
2022-08-03T09:31:20.291Z,98965.25
2022-08-03T09:33:47.738Z,98967.09
2022-08-03T09:36:34.498Z,98966.19
2022-08-03T09:39:03.702Z,98969.53
2022-08-03T09:41:30.241Z,98967.41
2022-08-03T09:43:57.208Z,98963.72
2022-08-03T09:46:23.790Z,98959.66
2022-08-03T09:48:50.323Z,98958.97
2022-08-03T09:52:18.700Z,98965.72
2022-08-03T09:54:11.406Z,98966.59
2022-08-03T09:56:47.394Z,98967.84
2022-08-03T09:59:23.234Z,98955.28
2022-08-03T10:01:49.770Z,98958.22
2022-08-03T10:04:17.135Z,98953.44
2022-08-03T10:06:44.814Z,98949.50
2022-08-03T10:09:12.613Z,98953.50
2022-08-03T10:11:42.125Z,98959.13
2022-08-03T10:14:10.848Z,98954.03
2022-08-03T10:16:38.435Z,98951.53
2022-08-03T10:19:06.389Z,98949.09
2022-08-03T10:21:34.769Z,98946.97
2022-08-03T10:24:03.416Z,98938.34
2022-08-03T10:26:31.388Z,98942.69
2022-08-03T10:29:00.099Z,98941.84
2022-08-03T10:31:31.812Z,98939.03
2022-08-03T10:33:59.405Z,98942.56
2022-08-03T10:36:27.500Z,98941.66
2022-08-03T10:38:55.262Z,98935.81
2022-08-03T10:41:23.286Z,98929.56
2022-08-03T10:44:13.450Z,98931.22
2022-08-03T10:46:44.788Z,98926.47
2022-08-03T10:49:16.123Z,98919.00
2022-08-03T10:51:47.173Z,98921.31
2022-08-03T10:54:58.204Z,98917.56
2022-08-03T10:57:42.842Z,98916.03
2022-08-03T11:00:10.268Z,98915.91
2022-08-03T11:03:06.865Z,98919.91
2022-08-03T11:05:34.919Z,98914.94
2022-08-03T11:08:20.959Z,98914.03
2022-08-03T11:10:48.216Z,98917.16
2022-08-03T11:13:19.054Z,98917.03
2022-08-03T11:15:47.265Z,98916.75
2022-08-03T11:18:14.246Z,98904.44
2022-08-03T11:20:44.899Z,98909.28
2022-08-03T11:23:11.582Z,98897.50
2022-08-03T11:25:56.918Z,98886.66
2022-08-03T11:28:30.774Z,98890.97
2022-08-03T11:30:57.429Z,98885.53
2022-08-03T11:33:31.000Z,98883.97
2022-08-03T11:36:01.976Z,98879.31
2022-08-03T11:38:28.497Z,98878.50
2022-08-03T11:40:55.040Z,98873.78
2022-08-03T11:43:31.465Z,98880.06
2022-08-03T11:46:01.434Z,98882.63
2022-08-03T11:48:33.961Z,98876.84
2022-08-03T11:51:20.684Z,98872.63
2022-08-03T11:53:47.909Z,98878.09
2022-08-03T11:56:14.590Z,98873.28
2022-08-03T11:59:17.209Z,98872.00
2022-08-03T12:01:41.770Z,98860.00
2022-08-03T12:04:08.514Z,98868.00
2022-08-03T12:06:54.825Z,98871.56
2022-08-03T12:09:21.760Z,98865.06
2022-08-03T12:11:59.887Z,98859.44
2022-08-03T12:14:49.416Z,98858.38
2022-08-03T12:17:14.031Z,98862.78
2022-08-03T12:19:43.990Z,98853.66
2022-08-03T12:22:10.581Z,98852.53
2022-08-03T12:24:46.620Z,98852.72
2022-08-03T12:27:22.591Z,98850.72
2022-08-03T12:29:58.804Z,98848.56
2022-08-03T12:32:26.427Z,98856.16
2022-08-03T12:34:52.984Z,98848.78
2022-08-03T12:37:22.255Z,98841.84
2022-08-03T12:40:03.577Z,98846.38
2022-08-03T12:42:36.375Z,98844.19
2022-08-03T12:45:23.021Z,98846.47
2022-08-03T12:47:52.555Z,98832.78
2022-08-03T12:50:26.721Z,98833.19
2022-08-03T12:52:53.363Z,98834.00
2022-08-03T12:55:21.077Z,98837.91
2022-08-03T12:57:47.605Z,98828.03
2022-08-03T13:00:21.830Z,98831.31
2022-08-03T13:03:38.381Z,98823.78
2022-08-03T13:05:49.725Z,98820.84
2022-08-03T13:08:20.001Z,98819.53
2022-08-03T13:10:46.783Z,98819.13
2022-08-03T13:13:13.499Z,98813.31
2022-08-03T13:15:47.931Z,98813.94
2022-08-03T13:18:17.333Z,98817.69
2022-08-03T13:20:44.420Z,98812.50
2022-08-03T13:23:15.475Z,98815.72
2022-08-03T13:25:55.580Z,98822.13
2022-08-03T13:28:22.937Z,98817.88
2022-08-03T13:30:49.439Z,98813.38
2022-08-03T13:33:16.066Z,98810.34
2022-08-03T13:35:42.601Z,98814.63
2022-08-03T13:38:09.173Z,98804.56
2022-08-03T13:40:42.197Z,98818.16
2022-08-03T13:43:09.021Z,98812.78
2022-08-03T13:45:35.584Z,98804.75
2022-08-03T13:48:02.246Z,98801.94
2022-08-03T13:50:30.062Z,98800.31
2022-08-03T13:52:56.980Z,98802.44
2022-08-03T13:55:23.591Z,98793.56
2022-08-03T13:58:11.928Z,98791.16
2022-08-03T14:00:36.880Z,98792.28
2022-08-03T14:03:09.545Z,98793.47
2022-08-03T14:05:40.327Z,98783.22
2022-08-03T14:08:07.359Z,98783.84
2022-08-03T14:10:34.604Z,98783.75
2022-08-03T14:13:01.165Z,98784.75
2022-08-03T14:15:31.105Z,98783.47
2022-08-03T14:17:58.513Z,98783.41
2022-08-03T14:20:38.683Z,98786.53
2022-08-03T14:23:12.924Z,98781.66
2022-08-03T14:25:44.366Z,98776.34
2022-08-03T14:28:18.653Z,98775.75
2022-08-03T14:30:45.328Z,98773.50
2022-08-03T14:33:11.814Z,98768.03
2022-08-03T14:35:38.661Z,98768.94
2022-08-03T14:38:05.145Z,98767.78
2022-08-03T14:40:31.819Z,98769.59
2022-08-03T14:42:58.381Z,98770.59
2022-08-03T14:45:24.934Z,98769.34
2022-08-03T14:50:29.670Z,98772.41
2022-08-03T14:50:43.269Z,98764.84
2022-08-03T14:53:13.771Z,98761.03
2022-08-03T14:55:49.631Z,98761.63
2022-08-03T14:58:19.748Z,98764.56
2022-08-03T15:00:48.768Z,98754.00
2022-08-03T15:03:17.131Z,98749.38
2022-08-03T15:05:44.267Z,98751.72
2022-08-03T15:08:10.990Z,98745.97
2022-08-03T15:10:44.518Z,98747.28
2022-08-03T15:13:17.940Z,98739.13
2022-08-03T15:15:44.486Z,98733.88
2022-08-03T15:18:11.549Z,98737.50
2022-08-03T15:20:46.592Z,98738.34
2022-08-03T15:23:14.497Z,98727.75
2022-08-03T15:26:31.752Z,98730.34
2022-08-03T15:28:30.639Z,98729.09
2022-08-03T15:30:57.379Z,98719.63
2022-08-03T15:33:23.851Z,98722.16
2022-08-03T15:35:50.424Z,98718.25
2022-08-03T15:38:17.140Z,98722.97
2022-08-03T15:40:43.823Z,98726.78
2022-08-03T15:43:10.564Z,98722.25
2022-08-03T15:45:37.254Z,98722.75
2022-08-03T15:48:07.246Z,98726.09
2022-08-03T15:50:33.746Z,98719.09
2022-08-03T15:53:00.245Z,98721.50
2022-08-03T15:55:27.232Z,98719.97
2022-08-03T15:59:09.787Z,98712.88
2022-08-03T16:00:40.939Z,98713.38
2022-08-03T16:03:07.491Z,98718.56
2022-08-03T16:05:34.371Z,98717.59
2022-08-03T16:08:03.572Z,98725.31
2022-08-03T16:10:30.822Z,98718.97
2022-08-03T16:12:58.972Z,98724.16
2022-08-03T16:15:25.676Z,98723.16
2022-08-03T16:17:52.364Z,98717.53
2022-08-03T16:20:33.880Z,98712.84
2022-08-03T16:23:00.745Z,98722.22
2022-08-03T16:25:32.069Z,98715.16
2022-08-03T16:28:07.924Z,98716.75
2022-08-03T16:30:39.552Z,98710.31
2022-08-03T16:33:06.200Z,98714.34
2022-08-03T16:35:32.704Z,98714.47
2022-08-03T16:37:59.273Z,98710.63
2022-08-03T16:40:26.350Z,98708.97
2022-08-03T16:42:53.054Z,98705.38
2022-08-03T16:45:19.703Z,98708.69
2022-08-03T16:47:46.257Z,98707.16
2022-08-03T16:50:18.972Z,98709.41
2022-08-03T16:52:47.063Z,98710.66
2022-08-03T16:55:15.314Z,98709.25
2022-08-03T16:57:59.549Z,98716.69
2022-08-03T17:00:34.650Z,98713.69
2022-08-03T17:03:18.656Z,98706.50
2022-08-03T17:05:48.231Z,98705.72
2022-08-03T17:08:19.066Z,98704.09
2022-08-03T17:10:54.082Z,98710.72
2022-08-03T17:13:21.763Z,98709.94
2022-08-03T17:15:58.160Z,98708.28
2022-08-03T17:18:32.456Z,98699.19
2022-08-03T17:21:04.024Z,98705.56
2022-08-03T17:23:40.062Z,98711.81
2022-08-03T17:26:16.045Z,98714.31
2022-08-03T17:28:58.214Z,98718.41
2022-08-03T17:31:31.356Z,98716.53
2022-08-03T17:34:00.336Z,98712.66
2022-08-03T17:36:41.920Z,98715.66
2022-08-03T17:39:14.196Z,98720.34
2022-08-03T17:41:49.149Z,98716.75
2022-08-03T17:44:33.184Z,98720.31
2022-08-03T17:47:04.029Z,98719.75
2022-08-03T17:49:33.197Z,98720.84
2022-08-03T17:52:17.636Z,98720.53
2022-08-03T17:55:55.335Z,98719.69
2022-08-03T17:58:03.084Z,98723.97
2022-08-03T18:00:52.228Z,98728.03
2022-08-03T18:03:29.390Z,98724.97
2022-08-03T18:06:10.380Z,98722.47
2022-08-03T18:08:47.208Z,98726.56
2022-08-03T18:11:21.680Z,98727.59
2022-08-03T18:13:53.361Z,98725.59
2022-08-03T18:16:28.645Z,98730.19
2022-08-03T18:18:59.329Z,98742.72
2022-08-03T18:21:28.298Z,98731.66
2022-08-03T18:24:16.181Z,98739.75
2022-08-03T18:26:42.970Z,98740.72
2022-08-03T18:29:15.446Z,98742.53
2022-08-03T18:32:03.439Z,98740.53
2022-08-03T18:34:34.058Z,98746.41
2022-08-03T18:37:04.339Z,98742.78
2022-08-03T18:39:36.219Z,98740.16
2022-08-03T18:42:19.533Z,98740.56
2022-08-03T18:44:54.136Z,98752.41
2022-08-03T18:47:25.551Z,98751.72
2022-08-03T18:50:19.033Z,98756.50
2022-08-03T18:52:54.681Z,98756.28
2022-08-03T18:55:33.147Z,98758.28
2022-08-03T18:58:05.973Z,98750.44
2022-08-03T19:00:53.972Z,98755.56
2022-08-03T19:03:23.462Z,98759.47
2022-08-03T19:06:02.672Z,98766.31
2022-08-03T19:08:44.066Z,98765.47
2022-08-03T19:11:17.382Z,98773.00
2022-08-03T19:13:50.360Z,98770.00
2022-08-03T19:16:35.723Z,98771.38
2022-08-03T19:19:08.987Z,98779.00
2022-08-03T19:21:35.974Z,98784.97
2022-08-03T19:24:06.695Z,98776.59
2022-08-03T19:26:36.815Z,98781.25
2022-08-03T19:29:05.867Z,98792.44
2022-08-03T19:31:58.792Z,98789.94
2022-08-03T19:34:27.657Z,98793.13
2022-08-03T19:36:55.235Z,98796.47
2022-08-03T19:39:24.343Z,98788.88
2022-08-03T19:41:52.173Z,98804.16
2022-08-03T19:44:22.991Z,98799.03
2022-08-03T19:46:54.162Z,98795.94
2022-08-03T19:49:22.867Z,98802.78
2022-08-03T19:52:01.691Z,98802.16
2022-08-03T19:54:35.488Z,98801.06
2022-08-03T19:57:02.621Z,98809.19
2022-08-03T19:59:35.905Z,98806.41
2022-08-03T20:02:05.249Z,98807.75
2022-08-03T20:04:32.190Z,98807.25
2022-08-03T20:06:59.332Z,98801.53
2022-08-03T20:09:30.433Z,98817.06
2022-08-03T20:11:57.351Z,98812.84
2022-08-03T20:14:26.647Z,98813.19
2022-08-03T20:16:53.556Z,98816.38
2022-08-03T20:19:20.234Z,98812.31
2022-08-03T20:21:47.447Z,98819.06
2022-08-03T20:24:24.481Z,98813.94
2022-08-03T20:26:53.777Z,98805.50
2022-08-03T20:30:05.255Z,98808.94
2022-08-03T20:32:11.277Z,98806.50
2022-08-03T20:34:38.377Z,98812.44
2022-08-03T20:37:05.272Z,98809.53
2022-08-03T20:39:36.448Z,98809.34
2022-08-03T20:42:03.750Z,98814.81
2022-08-03T20:44:30.844Z,98817.81
2022-08-03T20:47:00.711Z,98812.25
2022-08-03T20:49:28.242Z,98815.59
2022-08-03T20:51:54.755Z,98810.66
2022-08-03T20:54:30.506Z,98811.53
2022-08-03T20:56:58.753Z,98812.00
2022-08-03T20:59:38.573Z,98810.81
2022-08-03T21:02:13.976Z,98812.91
2022-08-03T21:04:47.448Z,98815.91
2022-08-03T21:07:23.122Z,98813.81
2022-08-03T21:09:53.453Z,98818.63
2022-08-03T21:12:48.247Z,98815.53
2022-08-03T21:16:07.047Z,98813.91
2022-08-03T21:18:05.660Z,98810.16
2022-08-03T21:20:33.119Z,98816.44
2022-08-03T21:23:00.046Z,98810.00
2022-08-03T21:25:30.727Z,98814.59
2022-08-03T21:27:57.644Z,98807.78
2022-08-03T21:30:25.388Z,98805.06
2022-08-03T21:32:53.811Z,98814.84
2022-08-03T21:35:23.023Z,98802.38
2022-08-03T21:38:09.794Z,98811.13
2022-08-03T21:40:36.527Z,98809.47
2022-08-03T21:43:03.096Z,98806.59
2022-08-03T21:45:29.671Z,98808.84
2022-08-03T21:47:56.629Z,98809.69
2022-08-03T21:50:23.158Z,98812.00
2022-08-03T21:52:51.036Z,98813.66
2022-08-03T21:55:18.596Z,98807.63
2022-08-03T21:57:50.405Z,98809.28
2022-08-03T22:00:17.928Z,98813.66
2022-08-03T22:02:55.772Z,98810.31
2022-08-03T22:05:42.999Z,98808.66
2022-08-03T22:08:10.083Z,98817.34
2022-08-03T22:10:36.961Z,98807.38
2022-08-03T22:13:03.506Z,98812.56
2022-08-03T22:15:30.528Z,98810.69
2022-08-03T22:17:57.517Z,98810.66
2022-08-03T22:20:24.303Z,98819.41
2022-08-03T22:22:55.810Z,98813.13
2022-08-03T22:25:33.326Z,98816.84
2022-08-03T22:28:01.733Z,98813.75
2022-08-03T22:30:28.905Z,98812.47
2022-08-03T22:32:56.354Z,98817.03
2022-08-03T22:35:24.498Z,98817.44
2022-08-03T22:37:52.574Z,98822.59
2022-08-03T22:40:19.271Z,98827.97
2022-08-03T22:42:46.074Z,98821.47
2022-08-03T22:46:06.206Z,98817.50
2022-08-03T22:47:59.841Z,98820.81
2022-08-03T22:50:33.436Z,98822.44
2022-08-03T22:53:01.095Z,98821.19
2022-08-03T22:55:27.636Z,98819.91
2022-08-03T22:57:56.222Z,98824.03
